UNKL

Details ICAO UNKL (KJA)
Name YEMELYANOVO
Region Russia
Timezone Asia/Krasnoyarsk (UTC+7.0)
Plans Departing 169
Arriving 137
Stats Elevation 942 ft / 287 m (AMSL)
Location 56.172946° 92.493276°
Runways 1
Magnetic Variation 4.123° E
Sunrise 2017-12-14 02:16:44 UTC / 2017-12-14 09:16:44 Local
Sunset 2017-12-14 09:15:15 UTC / 2017-12-14 16:15:15 Local
Advertisement - Login to hide

Runways

ID Width Length Bearing (true) Bearing (mag) Surface Threshold Offset Overrun Length
11 197 ft / 60 m 12,113 ft / 3,692 m 113.16° 109.04° Asphalt 0 ft / 0 m 235 ft / 72 m
29 197 ft / 60 m 12,113 ft / 3,692 m 293.21° 289.09° Asphalt 0 ft / 0 m 215 ft / 66 m

Map

Weather


0- 5 10 15 20 25 30 35+ Temperature / ° C

Clouds and Precipitation
Forecast for 2017-12-14 18:00 UTC. Updated 14 minutes ago

Ground ~20,000 ft ~40,000 ft Winds

METAR

UNKL 141330Z 26004MPS 9999 -SN NSC M12/M16 Q1044 R29/420150 NOSIG RMK QFE757

TAF

TAF UNKL 141100Z 1412/1512 25004G09MPS 9999 -SN SCT020 TEMPO 1412/1503 26009G14MPS 3500 -SN BLSN VV011 TEMPO 1503/1512 25010G15MPS 3500 -SN BLSN

Frequencies

Tower 121.90 MHz KRASNOYARSK TAXIING
Approach 127.70 MHz KRASNOYARSK APP
Approach 129.00 MHz KRASNOYARSK APP
Tower 118.30 MHz KRASNOYARSK TWR
Approach 124.00 MHz KRASNOYARSK APP
Warning: Do not use this data for real-world aviation or navigation. No guarantee of current accuracy is given.